sensor_id;sensor_type;location;lat;lon;timestamp;pressure;altitude;pressure_sealevel;temperature;humidity
3590;BME280;1809;48.470;9.226;2023-01-29T00:02:11;144509.84;;;0.37;100.00
3590;BME280;1809;48.470;9.226;2023-01-29T00:04:37;144847.47;;;0.35;100.00
3590;BME280;1809;48.470;9.226;2023-01-29T00:07:02;145543.47;;;0.41;100.00
3590;BME280;1809;48.470;9.226;2023-01-29T00:09:28;145199.69;;;0.40;100.00
3590;BME280;1809;48.470;9.226;2023-01-29T00:11:53;144848.69;;;0.36;100.00
3590;BME280;1809;48.470;9.226;2023-01-29T00:14:18;144822.06;;;0.25;100.00
3590;BME280;1809;48.470;9.226;2023-01-29T00:16:44;144837.75;;;0.31;100.00
3590;BME280;1809;48.470;9.226;2023-01-29T00:19:09;144817.19;;;0.23;100.00
3590;BME280;1809;48.470;9.226;2023-01-29T00:21:35;144830.50;;;0.28;100.00
3590;BME280;1809;48.470;9.226;2023-01-29T00:24:00;145202.09;;;0.41;100.00
3590;BME280;1809;48.470;9.226;2023-01-29T00:26:26;144490.50;;;0.29;100.00
3590;BME280;1809;48.470;9.226;2023-01-29T00:28:52;144836.59;;;0.31;100.00
3590;BME280;1809;48.470;9.226;2023-01-29T00:31:20;144489.28;;;0.28;100.00
3590;BME280;1809;48.470;9.226;2023-01-29T00:33:46;144842.63;;;0.33;100.00
3590;BME280;1809;48.470;9.226;2023-01-29T00:36:13;144840.19;;;0.32;100.00
3590;BME280;1809;48.470;9.226;2023-01-29T00:38:39;144831.72;;;0.29;100.00
3590;BME280;1809;48.470;9.226;2023-01-29T00:41:17;145197.25;;;0.39;100.00
3590;BME280;1809;48.470;9.226;2023-01-29T00:44:01;144841.44;;;0.33;100.00
3590;BME280;1809;48.470;9.226;2023-01-29T00:46:45;145186.31;;;0.34;100.00
3590;BME280;1809;48.470;9.226;2023-01-29T00:49:10;144512.25;;;0.38;100.00
3590;BME280;1809;48.470;9.226;2023-01-29T00:51:37;144519.47;;;0.41;100.00
3590;BME280;1809;48.470;9.226;2023-01-29T00:54:03;144163.78;;;0.35;100.00
3590;BME280;1809;48.470;9.226;2023-01-29T00:56:32;143130.75;;;0.31;100.00
3590;BME280;1809;48.470;9.226;2023-01-29T00:58:57;143134.31;;;0.32;100.00
3590;BME280;1809;48.470;9.226;2023-01-29T01:01:23;142777.72;;;0.26;100.00
3590;BME280;1809;48.470;9.226;2023-01-29T01:04:09;142456.94;;;0.34;100.00
3590;BME280;1809;48.470;9.226;2023-01-29T01:06:39;141410.38;;;0.24;100.00
3590;BME280;1809;48.470;9.226;2023-01-29T01:09:05;141399.72;;;0.20;100.00
3590;BME280;1809;48.470;9.226;2023-01-29T01:11:50;142076.75;;;0.18;100.00
3590;BME280;1809;48.470;9.226;2023-01-29T01:14:16;142430.78;;;0.23;100.00
3590;BME280;1809;48.470;9.226;2023-01-29T01:16:42;142101.66;;;0.28;100.00
3590;BME280;1809;48.470;9.226;2023-01-29T01:19:08;141735.88;;;0.18;100.00
3590;BME280;1809;48.470;9.226;2023-01-29T01:21:34;141399.72;;;0.20;100.00
3590;BME280;1809;48.470;9.226;2023-01-29T01:24:00;141409.19;;;0.24;100.00
3590;BME280;1809;48.470;9.226;2023-01-29T01:26:25;141070.69;;;0.25;100.00
3590;BME280;1809;48.470;9.226;2023-01-29T01:28:50;141073.00;;;0.26;100.00
3590;BME280;1809;48.470;9.226;2023-01-29T01:31:16;141428.06;;;0.32;100.00
3590;BME280;1809;48.470;9.226;2023-01-29T01:33:41;140770.97;;;0.42;100.00
3590;BME280;1809;48.470;9.226;2023-01-29T01:36:06;138686.63;;;0.25;100.00
3590;BME280;1809;48.470;9.226;2023-01-29T01:38:35;138008.91;;;0.27;100.00
3590;BME280;1809;48.470;9.226;2023-01-29T01:41:12;138008.91;;;0.27;100.00
3590;BME280;1809;48.470;9.226;2023-01-29T01:46:16;137328.97;;;0.27;100.00
3590;BME280;1809;48.470;9.226;2023-01-29T01:48:42;137674.06;;;0.29;100.00
3590;BME280;1809;48.470;9.226;2023-01-29T01:51:08;136969.03;;;0.19;100.00
3590;BME280;1809;48.470;9.226;2023-01-29T01:53:43;138008.91;;;0.27;100.00
3590;BME280;1809;48.470;9.226;2023-01-29T01:56:17;135966.03;;;0.27;100.00
3590;BME280;1809;48.470;9.226;2023-01-29T01:58:54;131543.88;;;0.27;100.00
3590;BME280;1809;48.470;9.226;2023-01-29T02:01:22;129176.84;;;0.32;100.00
3590;BME280;1809;48.470;9.226;2023-01-29T02:04:15;127133.59;;;0.30;100.00
3590;BME280;1809;48.470;9.226;2023-01-29T02:07:03;124770.03;;;0.36;100.00
3590;BME280;1809;48.470;9.226;2023-01-29T02:09:52;122419.81;;;0.48;100.00
3590;BME280;1809;48.470;9.226;2023-01-29T02:12:20;119355.47;;;0.41;100.00
3590;BME280;1809;48.470;9.226;2023-01-29T02:14:46;121678.69;;;0.17;100.00
3590;BME280;1809;48.470;9.226;2023-01-29T02:17:14;125071.91;;;0.18;100.00
3590;BME280;1809;48.470;9.226;2023-01-29T02:28:42;132234.88;;;0.32;100.00
3590;BME280;1809;48.470;9.226;2023-01-29T02:36:50;130545.94;;;0.37;100.00
3590;BME280;1809;48.470;9.226;2023-01-29T02:39:28;124090.34;;;0.35;100.00
3590;BME280;1809;48.470;9.226;2023-01-29T02:44:58;108558.31;;;0.58;100.00
3590;BME280;1809;48.470;9.226;2023-01-29T02:56:03;95379.28;;;0.42;100.00
3590;BME280;1809;48.470;9.226;2023-01-29T02:58:33;98740.66;;;0.38;100.00
3590;BME280;1809;48.470;9.226;2023-01-29T03:01:10;102111.69;;;0.39;100.00
3590;BME280;1809;48.470;9.226;2023-01-29T03:03:39;103460.69;;;0.39;100.00
3590;BME280;1809;48.470;9.226;2023-01-29T03:06:17;103796.28;;;0.38;100.00
3590;BME280;1809;48.470;9.226;2023-01-29T03:08:58;102447.19;;;0.38;100.00
3590;BME280;1809;48.470;9.226;2023-01-29T03:11:30;101455.88;;;0.50;100.00
3590;BME280;1809;48.470;9.226;2023-01-29T03:14:30;100082.53;;;0.35;100.00
3590;BME280;1809;48.470;9.226;2023-01-29T03:17:19;101431.50;;;0.35;100.00
3590;BME280;1809;48.470;9.226;2023-01-29T03:19:47;101073.50;;;0.23;100.00
3590;BME280;1809;48.470;9.226;2023-01-29T03:22:14;103765.31;;;0.20;100.00
3590;BME280;1809;48.470;9.226;2023-01-29T03:24:51;106130.34;;;0.22;100.00
3590;BME280;1809;48.470;9.226;2023-01-29T03:27:43;101077.66;;;0.25;100.00
3590;BME280;1809;48.470;9.226;2023-01-29T03:30:30;98353.34;;;0.07;100.00
3590;BME280;1809;48.470;9.226;2023-01-29T03:33:18;98019.16;;;0.09;100.00
3590;BME280;1809;48.470;9.226;2023-01-29T03:35:50;97350.81;;;0.12;100.00
3590;BME280;1809;48.470;9.226;2023-01-29T03:38:18;96015.13;;;0.18;100.00
3590;BME280;1809;48.470;9.226;2023-01-29T03:40:55;95019.16;;;0.27;100.00
3590;BME280;1809;48.470;9.226;2023-01-29T03:51:57;102071.94;;;0.15;100.00
3590;BME280;1809;48.470;9.226;2023-01-29T03:54:38;101071.00;;;0.21;100.00
3590;BME280;1809;48.470;9.226;2023-01-29T04:02:14;92641.22;;;0.11;100.00
3590;BME280;1809;48.470;9.226;2023-01-29T04:04:44;88632.16;;;0.26;100.00
3590;BME280;1809;48.470;9.226;2023-01-29T04:07:13;83255.88;;;0.21;100.00
3590;BME280;1809;48.470;9.226;2023-01-29T04:09:50;79563.47;;;0.16;100.00
3590;BME280;1809;48.470;9.226;2023-01-29T04:12:25;79228.63;;;0.16;100.00
3590;BME280;1809;48.470;9.226;2023-01-29T04:14:53;77567.00;;;0.25;100.00
3590;BME280;1809;48.470;9.226;2023-01-29T04:17:27;74218.97;;;0.23;100.00
3590;BME280;1809;48.470;9.226;2023-01-29T04:19:58;73552.66;;;0.25;100.00
3590;BME280;1809;48.470;9.226;2023-01-29T04:22:35;73226.16;;;0.32;100.00
3590;BME280;1809;48.470;9.226;2023-01-29T04:25:04;74225.66;;;0.29;100.00
3590;BME280;1809;48.470;9.226;2023-01-29T04:30:13;75895.66;;;0.27;100.00
3590;BME280;1809;48.470;9.226;2023-01-29T04:35:46;77553.59;;;0.15;100.00
3590;BME280;1809;48.470;9.226;2023-01-29T04:38:25;81565.19;;;0.10;100.00
3590;BME280;1809;48.470;9.226;2023-01-29T04:43:42;86582.88;;;0.02;100.00
3590;BME280;1809;48.470;9.226;2023-01-29T04:46:18;87242.38;;;-0.07;100.00
3590;BME280;1809;48.470;9.226;2023-01-29T04:49:17;88926.09;;;-0.03;100.00
3590;BME280;1809;48.470;9.226;2023-01-29T04:51:55;89591.63;;;-0.07;100.00
3590;BME280;1809;48.470;9.226;2023-01-29T04:54:30;90261.63;;;-0.08;100.00
3590;BME280;1809;48.470;9.226;2023-01-29T04:57:14;92615.16;;;-0.06;100.00
3590;BME280;1809;48.470;9.226;2023-01-29T04:59:49;94658.47;;;0.11;100.00
3590;BME280;1809;48.470;9.226;2023-01-29T05:02:15;94316.72;;;0.08;100.00
3590;BME280;1809;48.470;9.226;2023-01-29T05:04:43;94308.94;;;0.03;100.00
3590;BME280;1809;48.470;9.226;2023-01-29T05:07:13;93971.16;;;0.02;100.00
3590;BME280;1809;48.470;9.226;2023-01-29T05:09:41;92956.56;;;-0.03;100.00
3590;BME280;1809;48.470;9.226;2023-01-29T05:12:09;92961.19;;;0.00;100.00
3590;BME280;1809;48.470;9.226;2023-01-29T05:14:36;90617.66;;;0.06;100.00
3590;BME280;1809;48.470;9.226;2023-01-29T05:17:09;88956.97;;;0.19;100.00
3590;BME280;1809;48.470;9.226;2023-01-29T05:19:36;85918.38;;;0.06;100.00
3590;BME280;1809;48.470;9.226;2023-01-29T05:22:04;87259.66;;;0.06;100.00
3590;BME280;1809;48.470;9.226;2023-01-29T05:24:30;86919.81;;;0.03;100.00
3590;BME280;1809;48.470;9.226;2023-01-29T05:26:55;85925.47;;;0.11;100.00
3590;BME280;1809;48.470;9.226;2023-01-29T05:29:44;84904.50;;;0.00;100.00
3590;BME280;1809;48.470;9.226;2023-01-29T05:32:09;85573.78;;;-0.01;100.00
3590;BME280;1809;48.470;9.226;2023-01-29T05:34:34;81223.50;;;0.05;100.00
3590;BME280;1809;48.470;9.226;2023-01-29T05:37:00;77205.59;;;0.04;100.00
3590;BME280;1809;48.470;9.226;2023-01-29T05:39:25;75864.44;;;0.02;100.00
3590;BME280;1809;48.470;9.226;2023-01-29T05:41:51;76866.59;;;0.00;100.00
3590;BME280;1809;48.470;9.226;2023-01-29T05:44:16;77535.09;;;0.00;100.00
3590;BME280;1809;48.470;9.226;2023-01-29T05:46:41;75861.34;;;-0.01;100.00
3590;BME280;1809;48.470;9.226;2023-01-29T05:49:08;76535.88;;;0.04;100.00
3590;BME280;1809;48.470;9.226;2023-01-29T05:51:33;75528.19;;;0.00;100.00
3590;BME280;1809;48.470;9.226;2023-01-29T05:53:58;71858.38;;;0.06;100.00
3590;BME280;1809;48.470;9.226;2023-01-29T05:56:24;69847.72;;;-0.01;100.00
3590;BME280;1809;48.470;9.226;2023-01-29T05:58:49;71185.63;;;0.02;100.00
3590;BME280;1809;48.470;9.226;2023-01-29T06:01:20;71846.56;;;-0.05;100.00
3590;BME280;1809;48.470;9.226;2023-01-29T06:03:45;74518.41;;;-0.06;100.00
3590;BME280;1809;48.470;9.226;2023-01-29T06:06:11;75517.59;;;-0.09;100.00
3590;BME280;1809;48.470;9.226;2023-01-29T06:08:37;77534.47;;;-0.01;100.00
3590;BME280;1809;48.470;9.226;2023-01-29T06:11:03;76867.88;;;0.02;100.00
3590;BME280;1809;48.470;9.226;2023-01-29T06:13:31;76530.88;;;-0.01;100.00
3590;BME280;1809;48.470;9.226;2023-01-29T06:15:56;77866.47;;;-0.03;100.00
3590;BME280;1809;48.470;9.226;2023-01-29T06:18:21;78870.44;;;-0.03;100.00
3590;BME280;1809;48.470;9.226;2023-01-29T06:20:46;81541.00;;;-0.09;100.00
3590;BME280;1809;48.470;9.226;2023-01-29T06:23:12;84220.75;;;-0.09;100.00
3590;BME280;1809;48.470;9.226;2023-01-29T06:25:37;85904.91;;;-0.04;100.00
3590;BME280;1809;48.470;9.226;2023-01-29T06:28:02;80875.22;;;-0.06;100.00
3590;BME280;1809;48.470;9.226;2023-01-29T06:30:28;76872.94;;;0.06;100.00
3590;BME280;1809;48.470;9.226;2023-01-29T06:32:57;73180.44;;;-0.07;100.00
3590;BME280;1809;48.470;9.226;2023-01-29T06:35:23;70173.50;;;-0.08;100.00
3590;BME280;1809;48.470;9.226;2023-01-29T06:37:49;69828.78;;;-0.17;100.00
3590;BME280;1809;48.470;9.226;2023-01-29T06:40:14;70510.22;;;-0.05;100.00
3590;BME280;1809;48.470;9.226;2023-01-29T06:42:40;71170.41;;;-0.12;100.00
3590;BME280;1809;48.470;9.226;2023-01-29T06:45:06;74516.56;;;-0.07;100.00
3590;BME280;1809;48.470;9.226;2023-01-29T06:47:31;76513.22;;;-0.15;100.00
3590;BME280;1809;48.470;9.226;2023-01-29T06:49:56;79186.88;;;-0.17;100.00
3590;BME280;1809;48.470;9.226;2023-01-29T06:52:22;81534.28;;;-0.14;100.00
3590;BME280;1809;48.470;9.226;2023-01-29T06:54:49;78200.44;;;-0.03;100.00
3590;BME280;1809;48.470;9.226;2023-01-29T06:57:14;78518.94;;;-0.16;100.00
3590;BME280;1809;48.470;9.226;2023-01-29T06:59:40;80521.13;;;-0.20;100.00
3590;BME280;1809;48.470;9.226;2023-01-29T07:02:05;82529.59;;;-0.21;100.00
3590;BME280;1809;48.470;9.226;2023-01-29T07:04:31;83203.69;;;-0.18;100.00
3590;BME280;1809;48.470;9.226;2023-01-29T07:06:58;85217.34;;;-0.16;100.00
3590;BME280;1809;48.470;9.226;2023-01-29T07:09:23;86231.78;;;-0.10;100.00
3590;BME280;1809;48.470;9.226;2023-01-29T07:11:49;86251.69;;;0.05;100.00
3590;BME280;1809;48.470;9.226;2023-01-29T07:14:14;83227.75;;;0.00;100.00
3590;BME280;1809;48.470;9.226;2023-01-29T07:16:39;82891.94;;;-0.01;100.00
3590;BME280;1809;48.470;9.226;2023-01-29T07:19:05;83914.00;;;0.12;100.00
3590;BME280;1809;48.470;9.226;2023-01-29T07:21:30;79226.03;;;0.14;100.00
3590;BME280;1809;48.470;9.226;2023-01-29T07:23:56;78242.31;;;0.30;100.00
3590;BME280;1809;48.470;9.226;2023-01-29T07:26:21;72878.06;;;0.20;100.00
3590;BME280;1809;48.470;9.226;2023-01-29T07:28:46;71551.38;;;0.29;100.00
3590;BME280;1809;48.470;9.226;2023-01-29T07:31:13;69211.94;;;0.28;100.00
3590;BME280;1809;48.470;9.226;2023-01-29T07:33:39;68203.59;;;0.22;100.00
3590;BME280;1809;48.470;9.226;2023-01-29T07:36:07;68205.84;;;0.24;100.00
3590;BME280;1809;48.470;9.226;2023-01-29T07:38:33;68552.03;;;0.35;100.00
3590;BME280;1809;48.470;9.226;2023-01-29T07:40:58;66211.72;;;0.31;100.00
3590;BME280;1809;48.470;9.226;2023-01-29T07:43:24;66542.69;;;0.29;100.00
3590;BME280;1809;48.470;9.226;2023-01-29T07:45:49;67877.03;;;0.28;100.00
3590;BME280;1809;48.470;9.226;2023-01-29T07:48:15;69218.75;;;0.34;100.00
3590;BME280;1809;48.470;9.226;2023-01-29T07:50:40;68887.06;;;0.36;100.00
3590;BME280;1809;48.470;9.226;2023-01-29T07:53:06;68219.84;;;0.36;100.00
3590;BME280;1809;48.470;9.226;2023-01-29T07:55:32;67884.28;;;0.35;100.00
3590;BME280;1809;48.470;9.226;2023-01-29T07:58:00;67560.44;;;0.44;100.00
3590;BME280;1809;48.470;9.226;2023-01-29T08:00:26;63560.25;;;0.47;100.00
3590;BME280;1809;48.470;9.226;2023-01-29T08:02:52;61555.44;;;0.43;100.00
3590;BME280;1809;48.470;9.226;2023-01-29T08:05:17;62557.91;;;0.45;100.00
3590;BME280;1809;48.470;9.226;2023-01-29T08:07:43;62895.94;;;0.50;100.00
3590;BME280;1809;48.470;9.226;2023-01-29T08:10:08;61240.25;;;0.61;100.00
3590;BME280;1809;48.470;9.226;2023-01-29T08:12:34;55571.19;;;0.53;100.00
3590;BME280;1809;48.470;9.226;2023-01-29T08:14:59;52587.84;;;0.65;100.00
3590;BME280;1809;48.470;9.226;2023-01-29T08:17:25;51590.94;;;0.65;100.00
3590;BME280;1809;48.470;9.226;2023-01-29T08:19:50;49595.50;;;0.63;100.00
3590;BME280;1809;48.470;9.226;2023-01-29T08:22:15;46275.97;;;0.64;100.00
3590;BME280;1809;48.470;9.226;2023-01-29T08:24:42;47603.31;;;0.64;100.00
3590;BME280;1809;48.470;9.226;2023-01-29T08:27:07;46275.97;;;0.64;100.00
3590;BME280;1809;48.470;9.226;2023-01-29T08:29:33;46936.72;;;0.60;100.00
3590;BME280;1809;48.470;9.226;2023-01-29T08:31:58;51253.53;;;0.59;100.00
3590;BME280;1809;48.470;9.226;2023-01-29T08:34:25;57912.44;;;0.65;100.00
3590;BME280;1809;48.470;9.226;2023-01-29T08:36:50;57264.22;;;0.84;100.00
3590;BME280;1809;48.470;9.226;2023-01-29T08:39:15;51267.31;;;0.76;100.00
3590;BME280;1809;48.470;9.226;2023-01-29T08:41:41;48614.50;;;0.83;100.00
3590;BME280;1809;48.470;9.226;2023-01-29T08:44:06;46291.00;;;0.84;100.00
3590;BME280;1809;48.470;9.226;2023-01-29T08:46:31;45301.09;;;0.92;100.00
3590;BME280;1809;48.470;9.226;2023-01-29T08:48:57;41977.31;;;0.83;100.00
3590;BME280;1809;48.470;9.226;2023-01-29T08:51:24;44972.47;;;0.97;100.00
3590;BME280;1809;48.470;9.226;2023-01-29T08:53:49;46638.91;;;1.05;100.00
3590;BME280;1809;48.470;9.226;2023-01-29T08:56:14;42001.81;;;1.20;100.00
3590;BME280;1809;48.470;9.226;2023-01-29T08:58:40;31726.63;;;1.06;100.00
3590;BME280;1809;48.470;9.226;2023-01-29T09:01:11;32060.41;;;1.13;100.00
3590;BME280;1809;48.470;9.226;2023-01-29T09:03:37;31735.78;;;1.25;100.00
3590;BME280;1809;48.470;9.226;2023-01-29T09:06:05;28101.63;;;1.30;100.00
3590;BME280;1809;48.470;9.226;2023-01-29T09:08:30;17211.34;;;1.15;100.00
3590;BME280;1809;48.470;9.226;2023-01-29T09:10:58;2427.31;;;1.19;100.00
3590;BME280;1809;48.470;9.226;2023-01-29T09:13:24;1116.31;;;1.18;100.00
3590;BME280;1809;48.470;9.226;2023-01-29T09:15:49;788.69;;;1.03;100.00
3590;BME280;1809;48.470;9.226;2023-01-29T09:18:14;6362.34;;;1.05;100.00
3590;BME280;1809;48.470;9.226;2023-01-29T09:20:40;11284.44;;;0.84;100.00
3590;BME280;1809;48.470;9.226;2023-01-29T09:23:07;23796.50;;;0.97;100.00
3590;BME280;1809;48.470;9.226;2023-01-29T09:25:33;32055.25;;;1.02;100.00
3590;BME280;1809;48.470;9.226;2023-01-29T09:27:58;38692.19;;;1.30;100.00
3590;BME280;1809;48.470;9.226;2023-01-29T09:30:24;28437.06;;;1.41;100.00
3590;BME280;1809;48.470;9.226;2023-01-29T09:32:49;14256.22;;;1.47;100.00
3590;BME280;1809;48.470;9.226;2023-01-29T09:35:14;7351.44;;;1.49;100.00
3590;BME280;1809;48.470;9.226;2023-01-29T09:37:40;5709.25;;;1.46;100.00
3590;BME280;1809;48.470;9.226;2023-01-29T09:40:06;3412.88;;;1.67;100.00
3590;BME280;1809;48.470;9.226;2023-01-29T09:42:45;-4125.94;;;1.60;100.00
3590;BME280;1809;48.470;9.226;2023-01-29T09:45:20;-9359.72;;;1.59;100.00
3590;BME280;1809;48.470;9.226;2023-01-29T09:47:49;-4780.53;;;1.59;100.00
3590;BME280;1809;48.470;9.226;2023-01-29T09:50:27;-7071.47;;;1.63;100.00
3590;BME280;1809;48.470;9.226;2023-01-29T09:55:27;2428.34;;;1.61;100.00
3590;BME280;1809;48.470;9.226;2023-01-29T09:58:04;-10343.00;;;1.75;100.00
3590;BME280;1809;48.470;9.226;2023-01-29T10:00:38;-16215.78;;;1.68;100.00
3590;BME280;1809;48.470;9.226;2023-01-29T10:03:19;-10343.75;;;1.79;100.00
3590;BME280;1809;48.470;9.226;2023-01-29T10:25:15;-16227.06;;;2.08;100.00
3590;BME280;1809;48.470;9.226;2023-01-29T10:27:47;-16235.22;;;2.38;100.00
3590;BME280;1809;48.470;9.226;2023-01-29T10:30:32;-16238.88;;;2.51;100.00
3590;BME280;1809;48.470;9.226;2023-01-29T10:33:02;-16241.44;;;2.60;100.00
3590;BME280;1809;48.470;9.226;2023-01-29T10:35:38;-16247.63;;;2.82;100.00
3590;BME280;1809;48.470;9.226;2023-01-29T10:38:17;-16251.56;;;2.96;100.00
3590;BME280;1809;48.470;9.226;2023-01-29T10:46:39;-16262.84;;;3.37;100.00
3590;BME280;1809;48.470;9.226;2023-01-29T10:49:32;-16267.06;;;3.52;100.00
3590;BME280;1809;48.470;9.226;2023-01-29T10:52:20;-16262.97;;;3.37;100.00
3590;BME280;1809;48.470;9.226;2023-01-29T11:00:38;-16274.66;;;3.79;100.00
3590;BME280;1809;48.470;9.226;2023-01-29T11:03:20;-16271.00;;;3.66;100.00
3590;BME280;1809;48.470;9.226;2023-01-29T11:06:02;-16279.72;;;3.97;100.00
3590;BME280;1809;48.470;9.226;2023-01-29T11:08:48;-16282.81;;;4.08;100.00
3590;BME280;1809;48.470;9.226;2023-01-29T11:11:18;-16285.09;;;4.16;100.00
3590;BME280;1809;48.470;9.226;2023-01-29T11:13:52;-16287.03;;;4.23;100.00
3590;BME280;1809;48.470;9.226;2023-01-29T11:16:18;-16275.09;;;3.80;100.00
3590;BME280;1809;48.470;9.226;2023-01-29T11:18:49;-16274.38;;;3.78;100.00
3590;BME280;1809;48.470;9.226;2023-01-29T11:21:14;-16281.97;;;4.05;100.00
3590;BME280;1809;48.470;9.226;2023-01-29T11:23:40;-16267.63;;;3.54;100.00
3590;BME280;1809;48.470;9.226;2023-01-29T11:26:06;-16279.88;;;3.98;100.00
3590;BME280;1809;48.470;9.226;2023-01-29T11:31:28;-16284.78;;;4.15;100.00
3590;BME280;1809;48.470;9.226;2023-01-29T11:34:05;-16282.25;;;4.06;100.00
3590;BME280;1809;48.470;9.226;2023-01-29T11:36:36;-16276.63;;;3.86;100.00
3590;BME280;1809;48.470;9.226;2023-01-29T11:39:20;-16278.88;;;3.94;100.00
3590;BME280;1809;48.470;9.226;2023-01-29T11:44:25;-16266.78;;;3.51;100.00
3590;BME280;1809;48.470;9.226;2023-01-29T11:46:52;-16262.56;;;3.36;100.00
3590;BME280;1809;48.470;9.226;2023-01-29T11:49:32;-16259.72;;;3.25;100.00
3590;BME280;1809;48.470;9.226;2023-01-29T11:52:02;-16257.91;;;3.19;100.00
3590;BME280;1809;48.470;9.226;2023-01-29T11:54:33;-16262.56;;;3.36;100.00
3590;BME280;1809;48.470;9.226;2023-01-29T11:57:01;-16267.75;;;3.54;100.00
3590;BME280;1809;48.470;9.226;2023-01-29T11:59:44;-16269.03;;;3.59;100.00
3590;BME280;1809;48.470;9.226;2023-01-29T12:04:49;-16268.19;;;3.56;100.00
3590;BME280;1809;48.470;9.226;2023-01-29T12:07:17;-16259.19;;;3.23;100.00
3590;BME280;1809;48.470;9.226;2023-01-29T12:09:52;-16253.81;;;3.04;100.00
3590;BME280;1809;48.470;9.226;2023-01-29T12:12:30;-16266.91;;;3.51;100.00
3590;BME280;1809;48.470;9.226;2023-01-29T12:15:18;-16255.50;;;3.10;100.00
3590;BME280;1809;48.470;9.226;2023-01-29T12:17:51;-16262.13;;;3.34;100.00
3590;BME280;1809;48.470;9.226;2023-01-29T12:20:23;-16271.28;;;3.67;100.00
3590;BME280;1809;48.470;9.226;2023-01-29T12:25:29;-16271.56;;;3.68;100.00
3590;BME280;1809;48.470;9.226;2023-01-29T12:28:04;-16274.94;;;3.80;100.00
3590;BME280;1809;48.470;9.226;2023-01-29T12:30:44;-16278.88;;;3.94;100.00
3590;BME280;1809;48.470;9.226;2023-01-29T12:36:30;-16263.69;;;3.40;100.00
3590;BME280;1809;48.470;9.226;2023-01-29T12:38:57;-16275.50;;;3.82;100.00
3590;BME280;1809;48.470;9.226;2023-01-29T12:42:01;-16279.31;;;3.96;100.00
3590;BME280;1809;48.470;9.226;2023-01-29T12:44:48;-16271.28;;;3.67;100.00
3590;BME280;1809;48.470;9.226;2023-01-29T12:47:36;-16273.25;;;3.74;100.00
3590;BME280;1809;48.470;9.226;2023-01-29T12:50:14;-16270.16;;;3.63;100.00
3590;BME280;1809;48.470;9.226;2023-01-29T12:52:46;-16254.53;;;3.07;100.00
3590;BME280;1809;48.470;9.226;2023-01-29T12:55:35;-16233.53;;;2.32;100.00
3590;BME280;1809;48.470;9.226;2023-01-29T12:58:04;-16229.16;;;2.16;100.00
3590;BME280;1809;48.470;9.226;2023-01-29T13:00:37;-16240.03;;;2.55;100.00
3590;BME280;1809;48.470;9.226;2023-01-29T13:03:19;-16242.56;;;2.64;100.00
3590;BME280;1809;48.470;9.226;2023-01-29T13:05:49;-16241.44;;;2.60;100.00
3590;BME280;1809;48.470;9.226;2023-01-29T13:08:34;-16246.91;;;2.80;100.00
3590;BME280;1809;48.470;9.226;2023-01-29T13:11:03;-16254.94;;;3.08;100.00
3590;BME280;1809;48.470;9.226;2023-01-29T13:13:34;-16255.78;;;3.11;100.00
3590;BME280;1809;48.470;9.226;2023-01-29T13:16:04;-16258.59;;;3.21;100.00
3590;BME280;1809;48.470;9.226;2023-01-29T13:21:11;-16264.25;;;3.42;100.00
3590;BME280;1809;48.470;9.226;2023-01-29T13:23:50;-16269.03;;;3.59;100.00
3590;BME280;1809;48.470;9.226;2023-01-29T13:26:21;-16271.13;;;3.66;100.00
3590;BME280;1809;48.470;9.226;2023-01-29T13:28:47;-16267.06;;;3.52;100.00
3590;BME280;1809;48.470;9.226;2023-01-29T13:33:57;-16267.06;;;3.52;100.00
3590;BME280;1809;48.470;9.226;2023-01-29T13:36:26;-16272.41;;;3.71;100.00
3590;BME280;1809;48.470;9.226;2023-01-29T13:39:02;-16265.50;;;3.46;100.00
3590;BME280;1809;48.470;9.226;2023-01-29T13:41:40;-16265.94;;;3.48;100.00
3590;BME280;1809;48.470;9.226;2023-01-29T13:44:36;-16261.97;;;3.34;100.00
3590;BME280;1809;48.470;9.226;2023-01-29T13:47:08;-16260.28;;;3.28;100.00
3590;BME280;1809;48.470;9.226;2023-01-29T13:49:40;-16254.94;;;3.08;100.00
3590;BME280;1809;48.470;9.226;2023-01-29T13:54:54;-16255.50;;;3.10;100.00
3590;BME280;1809;48.470;9.226;2023-01-29T14:05:43;-16271.13;;;3.66;100.00
3590;BME280;1809;48.470;9.226;2023-01-29T14:13:40;-16263.81;;;3.40;100.00
3590;BME280;1809;48.470;9.226;2023-01-29T14:18:35;-16265.66;;;3.47;100.00
3590;BME280;1809;48.470;9.226;2023-01-29T14:23:42;-16259.88;;;3.26;100.00
3590;BME280;1809;48.470;9.226;2023-01-29T14:28:52;-16258.88;;;3.22;100.00
3590;BME280;1809;48.470;9.226;2023-01-29T14:31:29;-16256.91;;;3.15;100.00
3590;BME280;1809;48.470;9.226;2023-01-29T14:34:00;-16256.34;;;3.13;100.00
3590;BME280;1809;48.470;9.226;2023-01-29T14:36:27;-16255.66;;;3.11;100.00
3590;BME280;1809;48.470;9.226;2023-01-29T14:38:53;-16254.25;;;3.06;100.00
3590;BME280;1809;48.470;9.226;2023-01-29T14:43:46;-16245.94;;;2.76;100.00
3590;BME280;1809;48.470;9.226;2023-01-29T14:49:02;-16251.16;;;2.95;100.00
3590;BME280;1809;48.470;9.226;2023-01-29T14:51:33;-16249.59;;;2.89;100.00
3590;BME280;1809;48.470;9.226;2023-01-29T14:54:13;-16244.25;;;2.70;100.00
3590;BME280;1809;48.470;9.226;2023-01-29T14:56:48;-16244.81;;;2.72;100.00
3590;BME280;1809;48.470;9.226;2023-01-29T14:59:21;-4790.59;;;2.67;100.00
3590;BME280;1809;48.470;9.226;2023-01-29T15:01:54;-4133.63;;;2.53;100.00
3590;BME280;1809;48.470;9.226;2023-01-29T15:04:24;-4134.59;;;2.65;100.00
3590;BME280;1809;48.470;9.226;2023-01-29T15:07:16;-4462.44;;;2.64;100.00
3590;BME280;1809;48.470;9.226;2023-01-29T15:09:48;-525.22;;;2.65;100.00
3590;BME280;1809;48.470;9.226;2023-01-29T15:12:47;-3149.81;;;2.53;100.00
3590;BME280;1809;48.470;9.226;2023-01-29T15:15:17;-1181.16;;;2.47;100.00
3590;BME280;1809;48.470;9.226;2023-01-29T15:20:30;8675.78;;;2.30;100.00
3590;BME280;1809;48.470;9.226;2023-01-29T15:22:56;16910.25;;;2.23;100.00
3590;BME280;1809;48.470;9.226;2023-01-29T15:25:21;21854.72;;;2.04;100.00
3590;BME280;1809;48.470;9.226;2023-01-29T15:27:47;30779.16;;;1.97;100.00
3590;BME280;1809;48.470;9.226;2023-01-29T15:30:21;37408.44;;;2.00;100.00
3590;BME280;1809;48.470;9.226;2023-01-29T15:32:48;37411.16;;;2.04;100.00
3590;BME280;1809;48.470;9.226;2023-01-29T15:35:36;33099.53;;;2.01;100.00
3590;BME280;1809;48.470;9.226;2023-01-29T15:38:21;35415.53;;;1.94;100.00
3590;BME280;1809;48.470;9.226;2023-01-29T15:40:55;36071.03;;;1.81;100.00
3590;BME280;1809;48.470;9.226;2023-01-29T15:43:34;41040.22;;;1.71;100.00
3590;BME280;1809;48.470;9.226;2023-01-29T15:46:02;45014.44;;;1.55;100.00
3590;BME280;1809;48.470;9.226;2023-01-29T15:48:37;52988.56;;;1.44;100.00
3590;BME280;1809;48.470;9.226;2023-01-29T15:51:05;60985.69;;;1.41;100.00